createdAt,value
2022-11-24T00:00:11.982Z,15.88
2022-11-24T00:02:57.232Z,18.85
2022-11-24T00:05:42.494Z,11.30
2022-11-24T00:08:27.458Z,18.67
2022-11-24T00:11:18.133Z,19.92
2022-11-24T00:14:04.660Z,14.00
2022-11-24T00:16:49.931Z,19.83
2022-11-24T00:19:34.976Z,14.60
2022-11-24T00:22:19.850Z,15.45
2022-11-24T00:25:05.299Z,18.70
2022-11-24T00:27:50.262Z,18.48
2022-11-24T00:30:35.694Z,17.45
2022-11-24T00:33:20.657Z,21.05
2022-11-24T00:36:05.813Z,22.77
2022-11-24T00:38:55.563Z,19.98
2022-11-24T00:41:40.982Z,13.98
2022-11-24T00:44:25.976Z,18.27
2022-11-24T00:47:11.010Z,14.93
2022-11-24T00:49:56.498Z,15.52
2022-11-24T00:52:41.920Z,15.45
2022-11-24T00:55:26.757Z,15.10
2022-11-24T00:58:11.890Z,16.15
2022-11-24T01:01:17.961Z,16.75
2022-11-24T01:04:03.429Z,12.77
2022-11-24T01:06:48.788Z,18.20
2022-11-24T01:09:33.803Z,12.57
2022-11-24T01:12:19.043Z,17.40
2022-11-24T01:15:04.558Z,17.40
2022-11-24T01:17:49.537Z,14.85
2022-11-24T01:20:36.632Z,13.63
2022-11-24T01:23:21.729Z,11.07
2022-11-24T01:26:08.602Z,12.32
2022-11-24T01:28:58.012Z,12.23
2022-11-24T01:31:42.960Z,9.02
2022-11-24T01:34:28.295Z,13.32
2022-11-24T01:37:13.496Z,11.50
2022-11-24T01:39:58.685Z,17.65
2022-11-24T01:42:51.505Z,10.73
2022-11-24T01:45:41.397Z,9.95
2022-11-24T01:48:40.794Z,14.68
2022-11-24T01:51:29.733Z,14.50
2022-11-24T01:54:18.295Z,10.70
2022-11-24T01:57:11.471Z,8.85
2022-11-24T02:00:01.913Z,10.75
2022-11-24T02:02:47.292Z,7.20
2022-11-24T02:05:51.292Z,12.20
2022-11-24T02:08:48.984Z,17.00
2022-11-24T02:11:38.395Z,10.75
2022-11-24T02:14:24.928Z,11.15
2022-11-24T02:17:10.592Z,11.57
2022-11-24T02:20:01.893Z,10.90
2022-11-24T02:23:09.654Z,5.45
2022-11-24T02:26:26.592Z,9.43
2022-11-24T02:29:13.324Z,12.38
2022-11-24T02:32:04.700Z,5.28
2022-11-24T02:34:49.940Z,10.70
2022-11-24T02:37:35.083Z,13.20
2022-11-24T02:40:27.056Z,9.95
2022-11-24T02:43:20.609Z,9.30
2022-11-24T02:46:06.789Z,17.13
2022-11-24T02:48:51.949Z,9.60
2022-11-24T02:51:37.124Z,11.70
2022-11-24T02:54:22.617Z,9.63
2022-11-24T02:57:07.754Z,9.43
2022-11-24T02:59:52.840Z,7.07
2022-11-24T03:02:37.929Z,14.10
2022-11-24T03:05:23.656Z,11.48
2022-11-24T03:08:08.646Z,14.20
2022-11-24T03:10:54.489Z,13.35
2022-11-24T03:13:39.707Z,10.85
2022-11-24T03:16:24.858Z,9.48
2022-11-24T03:19:09.978Z,8.77
2022-11-24T03:21:55.308Z,6.80
2022-11-24T03:24:40.529Z,6.85
2022-11-24T03:27:25.815Z,10.07
2022-11-24T03:30:11.913Z,10.77
2022-11-24T03:32:57.176Z,16.65
2022-11-24T03:35:42.452Z,9.57
2022-11-24T03:38:27.680Z,12.32
2022-11-24T03:41:13.451Z,6.47
2022-11-24T03:43:58.475Z,6.80
2022-11-24T03:46:43.528Z,9.88
2022-11-24T03:49:28.838Z,7.18
2022-11-24T03:52:13.997Z,9.52
2022-11-24T03:54:58.900Z,14.35
2022-11-24T03:57:43.753Z,17.77
2022-11-24T04:00:29.118Z,16.63
2022-11-24T04:03:14.492Z,15.60
2022-11-24T04:05:59.619Z,10.85
2022-11-24T04:08:44.641Z,10.73
2022-11-24T04:11:48.099Z,20.45
2022-11-24T04:14:33.755Z,12.02
2022-11-24T04:17:19.265Z,16.15
2022-11-24T04:20:05.306Z,13.05
2022-11-24T04:22:51.694Z,14.05
2022-11-24T04:25:37.156Z,23.17
2022-11-24T04:28:22.553Z,10.05
2022-11-24T04:31:07.759Z,9.70
2022-11-24T04:33:52.798Z,12.05
2022-11-24T04:36:37.867Z,14.35
2022-11-24T04:39:26.288Z,8.85
2022-11-24T04:42:13.470Z,12.57
2022-11-24T04:44:58.736Z,9.00
2022-11-24T04:47:43.802Z,7.45
2022-11-24T04:50:28.945Z,7.55
2022-11-24T04:53:14.428Z,13.00
2022-11-24T04:55:59.892Z,8.32
2022-11-24T04:58:48.358Z,9.73
2022-11-24T05:01:33.886Z,9.43
2022-11-24T05:04:20.329Z,14.13
2022-11-24T05:07:05.690Z,13.30
2022-11-24T05:10:09.259Z,8.32
2022-11-24T05:12:56.911Z,34.30
2022-11-24T05:15:42.118Z,9.05
2022-11-24T05:18:27.303Z,6.28
2022-11-24T05:21:12.405Z,6.07
2022-11-24T05:23:57.901Z,8.05
2022-11-24T05:26:43.176Z,5.75
2022-11-24T05:29:28.063Z,3.88
2022-11-24T05:32:13.317Z,3.08
2022-11-24T05:35:00.569Z,4.38
2022-11-24T05:37:45.792Z,6.38
2022-11-24T05:40:31.679Z,5.53
2022-11-24T05:43:17.072Z,4.43
2022-11-24T05:46:02.315Z,7.95
2022-11-24T05:48:47.660Z,8.73
2022-11-24T05:51:33.343Z,8.32
2022-11-24T05:54:18.713Z,9.43
2022-11-24T05:57:03.751Z,6.32
2022-11-24T05:59:48.967Z,4.10
2022-11-24T06:02:34.225Z,4.32
2022-11-24T06:05:19.325Z,9.90
2022-11-24T06:08:06.874Z,10.55
2022-11-24T06:10:51.969Z,14.18
2022-11-24T06:13:36.916Z,11.05
2022-11-24T06:16:23.026Z,4.32
2022-11-24T06:19:10.555Z,7.13
2022-11-24T06:21:55.476Z,3.20
2022-11-24T06:24:40.763Z,5.90
2022-11-24T06:27:26.411Z,5.50
2022-11-24T06:30:12.525Z,6.18
2022-11-24T06:32:57.758Z,4.85
2022-11-24T06:35:42.932Z,5.38
2022-11-24T06:38:27.923Z,12.50
2022-11-24T06:41:15.029Z,7.97
2022-11-24T06:44:02.793Z,5.25
2022-11-24T06:46:48.371Z,3.55
2022-11-24T06:49:33.391Z,3.40
2022-11-24T06:52:18.629Z,4.43
2022-11-24T06:55:04.150Z,3.42
2022-11-24T06:57:49.463Z,6.20
2022-11-24T07:00:34.633Z,6.57
2022-11-24T07:03:20.112Z,9.45
2022-11-24T07:06:05.455Z,9.93
2022-11-24T07:08:51.246Z,11.85
2022-11-24T07:11:36.874Z,6.95
2022-11-24T07:14:21.882Z,12.15
2022-11-24T07:17:07.460Z,8.73
2022-11-24T07:19:52.663Z,8.48
2022-11-24T07:22:37.973Z,13.57
2022-11-24T07:25:24.741Z,17.40
2022-11-24T07:28:09.847Z,19.65
2022-11-24T07:30:55.144Z,22.67
2022-11-24T07:33:40.779Z,18.52
2022-11-24T07:36:25.738Z,20.85
2022-11-24T07:39:11.071Z,23.33
2022-11-24T07:41:56.292Z,16.85
2022-11-24T07:44:41.626Z,25.25
2022-11-24T07:47:27.055Z,22.08
2022-11-24T07:50:13.108Z,17.17
2022-11-24T07:53:03.485Z,17.20
2022-11-24T07:55:56.406Z,15.35
2022-11-24T07:58:41.545Z,9.00
2022-11-24T08:01:26.884Z,10.77
2022-11-24T08:04:12.196Z,15.15
2022-11-24T08:06:57.261Z,17.25
2022-11-24T08:09:42.310Z,14.57
2022-11-24T08:12:27.559Z,16.80
2022-11-24T08:15:12.592Z,23.75
2022-11-24T08:18:01.215Z,11.23
2022-11-24T08:20:46.192Z,18.73
2022-11-24T08:23:32.004Z,13.48
2022-11-24T08:26:20.222Z,18.10
2022-11-24T08:29:05.014Z,17.65
2022-11-24T08:31:50.487Z,20.30
2022-11-24T08:34:43.232Z,15.60
2022-11-24T08:37:29.372Z,16.92
2022-11-24T08:40:14.761Z,13.70
2022-11-24T08:43:00.774Z,20.60
2022-11-24T08:45:45.997Z,22.85
2022-11-24T08:48:31.647Z,12.55
2022-11-24T08:51:20.486Z,13.05
2022-11-24T08:54:05.389Z,17.10
2022-11-24T08:56:50.705Z,21.27
2022-11-24T08:59:35.926Z,18.77
2022-11-24T09:02:20.864Z,21.00
2022-11-24T09:05:22.493Z,35.25
2022-11-24T09:08:11.043Z,41.42
2022-11-24T09:11:05.253Z,50.75
2022-11-24T09:13:50.326Z,43.05
2022-11-24T09:16:36.251Z,39.50
2022-11-24T09:19:21.177Z,43.75
2022-11-24T09:22:06.140Z,37.08
2022-11-24T09:24:51.117Z,36.42
2022-11-24T09:27:36.687Z,48.55
2022-11-24T09:30:23.126Z,39.30
2022-11-24T09:33:08.095Z,58.60
2022-11-24T09:35:53.034Z,49.05
2022-11-24T09:38:37.983Z,42.10
2022-11-24T09:42:02.293Z,45.67
2022-11-24T09:44:59.106Z,58.22
2022-11-24T09:48:17.246Z,43.10
2022-11-24T09:51:04.212Z,50.65
2022-11-24T09:53:53.532Z,52.80
2022-11-24T09:56:41.612Z,47.50
2022-11-24T09:59:27.507Z,55.30
2022-11-24T10:02:13.900Z,50.13
2022-11-24T10:04:59.019Z,48.47
2022-11-24T10:07:57.690Z,50.22
2022-11-24T10:10:57.563Z,42.65
2022-11-24T10:14:04.201Z,36.85
2022-11-24T10:16:57.369Z,56.45
2022-11-24T10:19:56.389Z,53.25
2022-11-24T10:23:02.340Z,45.90
2022-11-24T10:25:47.178Z,47.58
2022-11-24T10:28:55.021Z,59.55
2022-11-24T10:31:45.684Z,56.80
2022-11-24T10:35:06.088Z,46.97
2022-11-24T10:38:10.271Z,53.17
2022-11-24T10:41:07.574Z,47.00
2022-11-24T10:43:52.805Z,58.08
2022-11-24T10:46:39.506Z,40.42
2022-11-24T10:49:30.003Z,60.33
2022-11-24T10:52:16.635Z,48.55
2022-11-24T10:55:04.157Z,43.22
2022-11-24T10:57:49.232Z,51.53
2022-11-24T11:00:35.844Z,52.08
2022-11-24T11:03:24.742Z,53.70
2022-11-24T11:06:24.425Z,47.00
2022-11-24T11:09:10.095Z,37.65
2022-11-24T11:11:55.594Z,50.40
2022-11-24T11:14:40.851Z,55.05
2022-11-24T11:17:37.047Z,42.47
2022-11-24T11:20:35.540Z,31.83
2022-11-24T11:23:22.130Z,38.15
2022-11-24T11:26:22.065Z,40.13
2022-11-24T11:35:33.527Z,38.80
2022-11-24T11:38:19.888Z,45.88
2022-11-24T11:41:10.786Z,35.28
2022-11-24T11:44:11.913Z,28.10
2022-11-24T11:46:59.018Z,39.58
2022-11-24T11:49:45.051Z,36.25
2022-11-24T11:52:51.997Z,30.00
2022-11-24T11:55:42.026Z,35.50
2022-11-24T11:59:04.866Z,35.80
2022-11-24T12:02:04.178Z,36.17
2022-11-24T12:04:53.636Z,33.95
2022-11-24T12:08:08.018Z,34.07
2022-11-24T12:11:27.346Z,31.27
2022-11-24T12:14:55.528Z,39.38
2022-11-24T12:17:51.027Z,32.40
2022-11-24T12:20:44.999Z,45.17
2022-11-24T12:24:03.850Z,22.30
2022-11-24T12:26:57.125Z,31.80
2022-11-24T12:30:05.715Z,33.83
2022-11-24T12:33:10.864Z,23.60
2022-11-24T12:36:10.692Z,24.95
2022-11-24T12:39:13.927Z,32.10
2022-11-24T12:42:10.831Z,26.90
2022-11-24T12:45:06.250Z,35.05
2022-11-24T12:48:21.062Z,31.08
2022-11-24T12:51:17.201Z,27.05
2022-11-24T12:54:06.234Z,25.40
2022-11-24T12:57:09.399Z,28.58
2022-11-24T13:00:06.628Z,37.83
2022-11-24T13:03:15.439Z,34.22
2022-11-24T13:06:12.621Z,28.35
2022-11-24T13:08:57.627Z,33.38
2022-11-24T13:11:57.909Z,29.70
2022-11-24T13:14:48.826Z,31.83
2022-11-24T13:17:52.473Z,30.15
2022-11-24T13:20:40.342Z,37.38
2022-11-24T13:23:28.476Z,35.70
2022-11-24T13:26:15.981Z,32.05
2022-11-24T13:29:13.472Z,27.90
2022-11-24T13:32:10.696Z,28.75
2022-11-24T13:35:03.565Z,27.80
2022-11-24T13:37:51.756Z,24.15
2022-11-24T13:40:38.691Z,27.45
2022-11-24T13:43:23.701Z,29.70
2022-11-24T13:46:09.816Z,31.45
2022-11-24T13:48:59.085Z,27.23
2022-11-24T13:51:44.353Z,23.35
2022-11-24T13:54:29.626Z,36.72
2022-11-24T13:57:35.342Z,20.30
2022-11-24T14:01:05.631Z,26.83
2022-11-24T14:04:31.990Z,27.42
2022-11-24T14:07:18.201Z,32.40
2022-11-24T14:10:03.894Z,22.73
2022-11-24T14:13:23.970Z,25.48
2022-11-24T14:16:08.861Z,36.83
2022-11-24T14:18:54.443Z,29.50
2022-11-24T14:21:44.295Z,35.92
2022-11-24T14:24:39.903Z,33.40
2022-11-24T14:27:30.366Z,34.38
2022-11-24T14:30:15.444Z,44.53
2022-11-24T14:33:02.915Z,32.80
2022-11-24T14:35:50.998Z,30.10
2022-11-24T14:38:36.362Z,37.55
2022-11-24T14:41:26.249Z,36.60
2022-11-24T14:44:34.189Z,31.65
2022-11-24T14:47:32.635Z,34.65
2022-11-24T14:50:22.022Z,35.22
2022-11-24T14:53:14.942Z,39.58
2022-11-24T14:56:08.837Z,23.80
2022-11-24T14:58:55.452Z,28.23
2022-11-24T15:01:41.015Z,36.05
2022-11-24T15:05:02.223Z,25.50
2022-11-24T15:07:39.588Z,32.47
2022-11-24T15:10:38.574Z,32.30
2022-11-24T15:13:24.957Z,31.80
2022-11-24T15:16:16.383Z,27.13
2022-11-24T15:19:02.633Z,35.17
2022-11-24T15:21:47.831Z,38.63
2022-11-24T15:24:32.966Z,32.05
2022-11-24T15:27:18.455Z,31.33
2022-11-24T15:30:03.488Z,30.75
2022-11-24T15:32:53.724Z,33.63
2022-11-24T15:35:38.890Z,29.48
2022-11-24T15:38:24.165Z,39.30
2022-11-24T15:41:21.180Z,32.08
2022-11-24T15:44:06.546Z,33.40
2022-11-24T15:46:51.999Z,36.65
2022-11-24T15:49:37.408Z,41.75
2022-11-24T15:52:22.828Z,30.33
2022-11-24T15:55:17.507Z,39.63
2022-11-24T15:58:02.384Z,34.50
2022-11-24T16:00:47.595Z,28.73
2022-11-24T16:03:48.958Z,26.10
2022-11-24T16:06:34.578Z,38.65
2022-11-24T16:09:19.623Z,29.60
2022-11-24T16:12:05.101Z,32.33
2022-11-24T16:14:50.692Z,27.08
2022-11-24T16:17:35.618Z,27.60
2022-11-24T16:20:21.378Z,32.13
2022-11-24T16:23:06.493Z,27.95
2022-11-24T16:25:51.848Z,24.50
2022-11-24T16:28:36.998Z,25.95
2022-11-24T16:31:22.107Z,31.90
2022-11-24T16:34:07.248Z,20.55
2022-11-24T16:36:52.242Z,22.70
2022-11-24T16:39:37.575Z,19.25
2022-11-24T16:42:22.819Z,24.30
2022-11-24T16:45:12.118Z,20.60
2022-11-24T16:47:57.267Z,27.13
2022-11-24T16:50:42.638Z,22.65
2022-11-24T16:53:27.591Z,23.80
2022-11-24T16:56:14.296Z,21.70
2022-11-24T16:58:59.404Z,15.52
2022-11-24T17:01:46.590Z,17.65
2022-11-24T17:04:32.500Z,17.42
2022-11-24T17:07:18.347Z,19.27
2022-11-24T17:10:03.865Z,18.10
2022-11-24T17:12:48.762Z,22.52
2022-11-24T17:15:39.192Z,12.52
2022-11-24T17:18:28.010Z,11.65
2022-11-24T17:21:16.656Z,14.68
2022-11-24T17:24:05.433Z,10.57
2022-11-24T17:26:53.677Z,11.23
2022-11-24T17:29:38.908Z,11.63
2022-11-24T17:32:24.227Z,11.75
2022-11-24T17:35:09.319Z,12.70
2022-11-24T17:37:56.237Z,12.02
2022-11-24T17:40:46.578Z,16.00
2022-11-24T17:43:31.898Z,10.73
2022-11-24T17:46:17.661Z,14.27
2022-11-24T17:49:03.282Z,18.45
2022-11-24T17:51:50.423Z,19.98
2022-11-24T17:54:51.004Z,20.90
2022-11-24T17:57:36.303Z,38.53
2022-11-24T18:00:21.738Z,21.50
2022-11-24T18:03:06.929Z,21.70
2022-11-24T18:05:52.176Z,18.27
2022-11-24T18:08:39.187Z,20.08
2022-11-24T18:11:31.393Z,15.57
2022-11-24T18:14:17.339Z,19.13
2022-11-24T18:17:02.372Z,19.92
2022-11-24T18:19:48.063Z,29.88
2022-11-24T18:23:04.013Z,16.40
2022-11-24T18:25:38.943Z,22.67
2022-11-24T18:28:24.013Z,20.20
2022-11-24T18:31:11.731Z,23.30
2022-11-24T18:33:56.773Z,25.30
2022-11-24T18:36:42.162Z,29.15
2022-11-24T18:39:29.481Z,32.08
2022-11-24T18:42:15.644Z,22.48
2022-11-24T18:45:00.585Z,30.65
2022-11-24T18:47:45.791Z,30.02
2022-11-24T18:50:30.884Z,30.23
2022-11-24T18:53:15.798Z,28.55
2022-11-24T18:56:02.971Z,23.55
2022-11-24T18:58:48.249Z,22.45
2022-11-24T19:01:33.315Z,29.27
2022-11-24T19:04:18.634Z,33.20
2022-11-24T19:07:03.870Z,29.55
2022-11-24T19:09:49.205Z,28.52
2022-11-24T19:12:34.379Z,23.15
2022-11-24T19:15:19.530Z,34.90
2022-11-24T19:18:05.355Z,27.70
2022-11-24T19:20:50.720Z,30.80
2022-11-24T19:23:36.270Z,25.60
2022-11-24T19:26:21.613Z,26.08
2022-11-24T19:29:07.741Z,27.17
2022-11-24T19:31:54.053Z,27.05
2022-11-24T19:34:39.429Z,34.90
2022-11-24T19:37:24.665Z,31.77
2022-11-24T19:40:10.232Z,37.30
2022-11-24T19:42:55.264Z,30.33
2022-11-24T19:45:44.283Z,40.10
2022-11-24T19:48:34.704Z,31.58
2022-11-24T19:51:22.760Z,25.77
2022-11-24T19:54:10.250Z,29.10
2022-11-24T19:56:56.291Z,21.27
2022-11-24T19:59:41.681Z,17.38
2022-11-24T20:02:28.139Z,20.50
2022-11-24T20:05:13.740Z,20.85
2022-11-24T20:07:58.885Z,23.42
2022-11-24T20:10:44.562Z,15.40
2022-11-24T20:13:29.868Z,12.70
2022-11-24T20:16:17.677Z,14.98
2022-11-24T20:19:07.166Z,19.77
2022-11-24T20:21:53.137Z,13.27
2022-11-24T20:24:37.964Z,14.05
2022-11-24T20:27:22.904Z,15.57
2022-11-24T20:30:08.574Z,14.93
2022-11-24T20:32:53.904Z,18.83
2022-11-24T20:35:39.182Z,18.42
2022-11-24T20:38:24.176Z,15.52
2022-11-24T20:41:12.316Z,22.25
2022-11-24T20:44:00.067Z,20.60
2022-11-24T20:46:46.561Z,22.83
2022-11-24T20:49:31.792Z,19.77
2022-11-24T20:52:17.005Z,22.92
2022-11-24T20:55:03.912Z,15.55
2022-11-24T20:57:49.218Z,19.67
2022-11-24T21:00:34.233Z,13.88
2022-11-24T21:03:19.145Z,22.42
2022-11-24T21:06:04.275Z,21.80
2022-11-24T21:08:50.658Z,21.83
2022-11-24T21:11:37.466Z,16.67
2022-11-24T21:14:24.306Z,17.50
2022-11-24T21:17:09.495Z,16.98
2022-11-24T21:19:59.579Z,21.80
2022-11-24T21:22:46.214Z,18.98
2022-11-24T21:25:31.767Z,23.63
2022-11-24T21:28:17.047Z,19.70
2022-11-24T21:31:06.985Z,30.98
2022-11-24T21:33:53.867Z,23.95
2022-11-24T21:36:41.656Z,34.53
2022-11-24T21:39:27.309Z,26.85
2022-11-24T21:42:12.179Z,35.13
2022-11-24T21:45:00.591Z,28.60
2022-11-24T21:47:47.006Z,32.65
2022-11-24T21:50:32.913Z,27.67
2022-11-24T21:53:18.365Z,27.83
2022-11-24T21:56:07.145Z,26.95
2022-11-24T21:58:57.879Z,25.17
2022-11-24T22:01:42.886Z,21.20
2022-11-24T22:04:28.055Z,16.35
2022-11-24T22:07:13.032Z,28.58
2022-11-24T22:09:57.997Z,25.10
2022-11-24T22:12:43.162Z,26.15
2022-11-24T22:15:28.371Z,27.48
2022-11-24T22:18:13.272Z,26.48
2022-11-24T22:20:58.364Z,31.73
2022-11-24T22:23:44.216Z,30.23
2022-11-24T22:26:30.633Z,36.95
2022-11-24T22:29:15.816Z,30.42
2022-11-24T22:32:01.080Z,31.63
2022-11-24T22:34:46.247Z,25.10
2022-11-24T22:37:31.368Z,29.33
2022-11-24T22:40:16.934Z,31.58
2022-11-24T22:43:02.291Z,32.50
2022-11-24T22:45:47.310Z,29.52
2022-11-24T22:48:33.108Z,26.67
2022-11-24T22:51:20.424Z,30.40
2022-11-24T22:54:06.211Z,33.47
2022-11-24T22:56:51.299Z,28.92
2022-11-24T22:59:36.426Z,27.75
2022-11-24T23:02:21.286Z,34.60
2022-11-24T23:05:06.533Z,32.22
2022-11-24T23:07:51.580Z,29.33
2022-11-24T23:10:36.843Z,37.40
2022-11-24T23:13:21.752Z,38.80
2022-11-24T23:16:10.130Z,26.83
2022-11-24T23:18:55.878Z,31.65
2022-11-24T23:21:41.167Z,34.35
2022-11-24T23:24:26.325Z,26.42
2022-11-24T23:27:11.324Z,30.67
2022-11-24T23:29:56.853Z,30.85
2022-11-24T23:32:41.966Z,29.38
2022-11-24T23:35:26.965Z,24.75
2022-11-24T23:38:12.255Z,35.15
2022-11-24T23:40:57.505Z,21.38
2022-11-24T23:43:43.120Z,31.13
2022-11-24T23:46:28.494Z,22.13
2022-11-24T23:49:13.538Z,24.35
2022-11-24T23:51:58.745Z,18.52
2022-11-24T23:54:44.155Z,28.02
2022-11-24T23:57:29.350Z,29.58
